Time;durP1;ratioP1;P1;durP2;ratioP2;P2;SDS_P1;SDS_P2;PMS_P1;PMS_P2;Temp;Humidity;BMP_temperature;BMP_pressure;BME280_temperature;BME280_humidity;BME280_pressure;Samples;Min_cycle;Max_cycle;Signal;HPM_P1;HPM_P2
2021/05/10 00:00:35;;;;;;;0.50;0.45;;;18.30;67.70;;;;;;5074970;28;20071;-76
2021/05/10 00:03:00;;;;;;;0.45;0.38;;;18.30;67.70;;;;;;5075161;28;20064;-76
2021/05/10 00:05:26;;;;;;;0.40;0.40;;;18.30;67.80;;;;;;5092771;28;20096;-76
2021/05/10 00:07:52;;;;;;;0.50;0.50;;;18.30;67.90;;;;;;5074657;28;20040;-76
2021/05/10 00:10:18;;;;;;;0.43;0.40;;;18.30;68.00;;;;;;5055481;28;20094;-76
2021/05/10 00:12:43;;;;;;;0.50;0.47;;;18.30;68.10;;;;;;5092709;28;20102;-76
2021/05/10 00:15:10;;;;;;;0.40;0.40;;;18.20;68.10;;;;;;5074587;28;20054;-76
2021/05/10 00:17:36;;;;;;;0.65;0.55;;;18.20;68.10;;;;;;5074714;28;20044;-77
2021/05/10 00:20:04;;;;;;;0.47;0.47;;;18.20;68.20;;;;;;5092674;28;20048;-78
2021/05/10 00:22:29;;;;;;;0.50;0.50;;;18.20;68.20;;;;;;5057681;28;20044;-77
2021/05/10 00:24:55;;;;;;;0.52;0.45;;;18.20;68.20;;;;;;5074547;28;20394;-76
2021/05/10 00:27:21;;;;;;;0.30;0.30;;;18.20;68.20;;;;;;5092459;28;20067;-78
2021/05/10 00:29:46;;;;;;;0.50;0.50;;;18.20;68.30;;;;;;5075072;28;20040;-78
2021/05/10 00:32:12;;;;;;;0.43;0.43;;;18.20;68.40;;;;;;5074570;28;20374;-77
2021/05/10 00:34:38;;;;;;;1.00;0.80;;;18.20;68.40;;;;;;5074612;28;20448;-79
2021/05/10 00:37:04;;;;;;;0.57;0.57;;;18.20;68.50;;;;;;5072615;28;20042;-78
2021/05/10 00:39:29;;;;;;;0.55;0.52;;;18.10;68.50;;;;;;5071503;28;20414;-78
2021/05/10 00:41:56;;;;;;;0.60;0.60;;;18.20;68.50;;;;;;5074442;28;20039;-78
2021/05/10 00:44:22;;;;;;;0.68;0.50;;;18.20;68.50;;;;;;5092859;28;20048;-78
2021/05/10 00:46:49;;;;;;;0.50;0.50;;;18.20;68.50;;;;;;5074356;28;20446;-77
2021/05/10 00:49:14;;;;;;;0.68;0.55;;;18.10;68.60;;;;;;5057848;28;20052;-78
2021/05/10 00:51:40;;;;;;;0.60;0.60;;;18.10;68.70;;;;;;5056826;28;20032;-77
2021/05/10 00:54:06;;;;;;;0.70;0.70;;;18.10;68.80;;;;;;5041064;28;20130;-78
2021/05/10 00:56:31;;;;;;;0.73;0.60;;;18.10;68.90;;;;;;5092821;28;20427;-78
2021/05/10 00:58:57;;;;;;;0.55;0.55;;;18.10;68.90;;;;;;5073867;28;20542;-78
2021/05/10 01:01:23;;;;;;;0.95;0.60;;;18.00;68.90;;;;;;5056362;28;20127;-77
2021/05/10 01:03:53;;;;;;;1.73;0.70;;;18.00;68.90;;;;;;5090620;28;20047;-77
2021/05/10 01:06:19;;;;;;;0.90;0.57;;;18.00;69.00;;;;;;5074090;28;20059;-77
2021/05/10 01:08:45;;;;;;;0.88;0.73;;;17.90;69.20;;;;;;5057187;28;20113;-77
2021/05/10 01:11:11;;;;;;;0.80;0.73;;;17.90;69.30;;;;;;5073915;28;20115;-77
2021/05/10 01:13:36;;;;;;;0.50;0.43;;;17.90;69.50;;;;;;5072508;28;20040;-78
2021/05/10 01:16:02;;;;;;;0.82;0.70;;;17.80;69.50;;;;;;5091838;28;20394;-78
2021/05/10 01:18:28;;;;;;;0.70;0.70;;;17.80;69.60;;;;;;5072779;28;20047;-78
2021/05/10 01:20:55;;;;;;;0.82;0.80;;;17.80;69.70;;;;;;5073949;28;20036;-77
2021/05/10 01:23:21;;;;;;;0.70;0.70;;;17.80;69.80;;;;;;5094689;28;20036;-77
2021/05/10 01:25:49;;;;;;;0.57;0.57;;;17.70;69.80;;;;;;5044131;28;20032;-78
2021/05/10 01:28:15;;;;;;;1.65;0.80;;;17.70;70.00;;;;;;5077376;28;20043;-78
2021/05/10 01:30:47;;;;;;;0.50;0.50;;;17.70;70.10;;;;;;5076463;28;20102;-78
2021/05/10 01:33:13;;;;;;;0.50;0.50;;;17.60;70.20;;;;;;5095361;28;20130;-78
2021/05/10 01:35:41;;;;;;;0.30;0.30;;;17.60;70.30;;;;;;5075841;28;20082;-78
2021/05/10 01:38:07;;;;;;;0.50;0.50;;;17.60;70.40;;;;;;5044148;28;20048;-77
2021/05/10 01:40:34;;;;;;;1.05;0.70;;;17.60;70.40;;;;;;5077343;28;20039;-78
2021/05/10 01:43:00;;;;;;;1.05;0.63;;;17.60;70.50;;;;;;5076821;28;20059;-77
2021/05/10 01:45:26;;;;;;;0.60;0.60;;;17.60;70.50;;;;;;5095525;28;20032;-78
2021/05/10 01:47:59;;;;;;;1.63;0.70;;;17.50;70.50;;;;;;5077443;28;20032;-77
2021/05/10 01:50:25;;;;;;;0.75;0.70;;;17.60;70.60;;;;;;5074233;28;20037;-78
2021/05/10 01:52:52;;;;;;;0.73;0.70;;;17.50;70.60;;;;;;5074993;28;20041;-78
2021/05/10 01:55:20;;;;;;;0.73;0.73;;;17.50;70.60;;;;;;5095383;28;20390;-77
2021/05/10 01:57:49;;;;;;;0.50;0.50;;;17.50;70.60;;;;;;5077230;28;20139;-77
2021/05/10 02:00:21;;;;;;;0.50;0.50;;;17.50;70.70;;;;;;5093600;28;20040;-77
2021/05/10 02:02:47;;;;;;;1.00;0.57;;;17.40;70.80;;;;;;5076861;28;20048;-78
2021/05/10 02:05:16;;;;;;;0.50;0.50;;;17.50;70.90;;;;;;5076885;28;20040;-78
2021/05/10 02:07:54;;;;;;;0.50;0.50;;;17.40;71.00;;;;;;5075437;28;20036;-77
2021/05/10 02:10:24;;;;;;;0.60;0.60;;;17.30;71.10;;;;;;5095338;28;20036;-77
2021/05/10 02:13:01;;;;;;;0.50;0.50;;;17.30;71.20;;;;;;5060402;28;20040;-78
2021/05/10 02:15:30;;;;;;;0.60;0.60;;;17.20;71.30;;;;;;5094795;28;20565;-77
2021/05/10 02:17:56;;;;;;;0.45;0.45;;;17.20;71.30;;;;;;5095032;28;20040;-77
2021/05/10 02:20:23;;;;;;;0.93;0.70;;;17.20;71.40;;;;;;5076563;28;20047;-78
2021/05/10 02:22:51;;;;;;;0.50;0.50;;;17.10;71.50;;;;;;5059718;28;20068;-77
2021/05/10 02:25:19;;;;;;;0.50;0.50;;;17.10;71.70;;;;;;5076810;28;20558;-77
2021/05/10 02:27:45;;;;;;;0.52;0.52;;;17.00;71.70;;;;;;5094552;28;20044;-77
2021/05/10 02:30:11;;;;;;;0.77;0.77;;;17.00;71.80;;;;;;5059908;28;20105;-78
2021/05/10 02:32:37;;;;;;;0.43;0.40;;;17.00;71.90;;;;;;5094751;28;20044;-77
2021/05/10 02:35:03;;;;;;;0.70;0.70;;;17.00;72.00;;;;;;5093809;28;20031;-77
2021/05/10 02:37:29;;;;;;;0.45;0.45;;;17.00;72.00;;;;;;5076293;28;20044;-78
2021/05/10 02:39:55;;;;;;;0.50;0.50;;;17.00;71.90;;;;;;5055611;28;20613;-78
2021/05/10 02:42:20;;;;;;;0.60;0.60;;;17.00;72.00;;;;;;5074911;28;20452;-77
2021/05/10 02:44:46;;;;;;;0.90;0.70;;;17.00;72.00;;;;;;5094623;28;20093;-78
2021/05/10 02:47:11;;;;;;;0.80;0.80;;;17.00;72.00;;;;;;5074303;28;20048;-77
2021/05/10 02:49:37;;;;;;;1.00;0.73;;;16.90;72.00;;;;;;5094113;28;20040;-78
2021/05/10 02:52:03;;;;;;;0.50;0.50;;;17.00;72.00;;;;;;5074983;28;20041;-78
2021/05/10 02:54:29;;;;;;;0.70;0.60;;;17.00;72.00;;;;;;5094031;28;20044;-78
2021/05/10 02:56:55;;;;;;;0.50;0.50;;;17.00;72.10;;;;;;5075791;28;20032;-78
2021/05/10 02:59:20;;;;;;;0.45;0.45;;;16.90;72.00;;;;;;5075905;28;20044;-77
2021/05/10 03:01:46;;;;;;;0.85;0.57;;;16.90;72.10;;;;;;5094604;28;20040;-77
2021/05/10 03:04:12;;;;;;;0.50;0.50;;;16.90;72.20;;;;;;5094469;28;20040;-77
2021/05/10 03:06:37;;;;;;;0.60;0.60;;;16.90;72.20;;;;;;5076275;28;20043;-77
2021/05/10 03:09:03;;;;;;;0.63;0.50;;;16.90;72.30;;;;;;5094124;28;20097;-78
2021/05/10 03:11:29;;;;;;;0.50;0.50;;;16.80;72.30;;;;;;5093839;28;20130;-76
2021/05/10 03:13:55;;;;;;;1.75;0.55;;;16.80;72.30;;;;;;5093793;28;20040;-78
2021/05/10 03:16:20;;;;;;;0.40;0.40;;;16.80;72.40;;;;;;5075717;28;20083;-78
2021/05/10 03:18:46;;;;;;;0.50;0.50;;;16.80;72.50;;;;;;5094067;28;20125;-78
2021/05/10 03:21:12;;;;;;;0.90;0.45;;;16.80;72.50;;;;;;5075856;28;20485;-77
2021/05/10 03:23:37;;;;;;;0.60;0.60;;;16.80;72.40;;;;;;5075348;28;20076;-75
2021/05/10 03:26:03;;;;;;;0.40;0.40;;;16.80;72.60;;;;;;5093646;28;20047;-76
2021/05/10 03:28:30;;;;;;;0.40;0.40;;;17.00;72.10;;;;;;5093531;28;20050;-76
2021/05/10 03:30:55;;;;;;;1.27;0.50;;;17.10;71.60;;;;;;5042216;28;20517;-76
2021/05/10 03:33:21;;;;;;;0.40;0.40;;;17.20;71.10;;;;;;5075054;28;20048;-76
2021/05/10 03:35:47;;;;;;;0.47;0.45;;;17.30;70.90;;;;;;5093446;28;20044;-76
2021/05/10 03:38:13;;;;;;;0.30;0.30;;;17.30;70.70;;;;;;5074513;28;20051;-77
2021/05/10 03:40:38;;;;;;;0.40;0.40;;;17.30;70.70;;;;;;5058384;28;20035;-77
2021/05/10 03:43:04;;;;;;;0.40;0.40;;;17.30;70.60;;;;;;5073979;28;20037;-76
2021/05/10 03:45:30;;;;;;;0.30;0.30;;;17.30;70.60;;;;;;5058651;28;20040;-76
2021/05/10 03:47:55;;;;;;;0.30;0.30;;;17.40;70.40;;;;;;5093847;28;20028;-75
2021/05/10 03:50:22;;;;;;;0.47;0.30;;;17.50;70.20;;;;;;5075682;28;20071;-75
2021/05/10 03:52:50;;;;;;;0.30;0.30;;;17.50;69.90;;;;;;5093225;28;20040;-76
2021/05/10 03:55:18;;;;;;;0.30;0.30;;;17.50;69.80;;;;;;5075119;28;20040;-76
2021/05/10 03:57:45;;;;;;;0.40;0.40;;;17.50;70.40;;;;;;5093155;28;20063;-76
2021/05/10 04:00:12;;;;;;;0.47;0.47;;;17.60;69.70;;;;;;5093157;28;20043;-75
2021/05/10 04:02:39;;;;;;;0.35;0.30;;;17.70;69.50;;;;;;5092921;28;20040;-78
2021/05/10 04:15:58;;;;;;;0.40;0.40;;;18.40;67.50;;;;;;5077051;28;20438;-77
2021/05/10 04:18:24;;;;;;;0.55;0.52;;;18.50;67.00;;;;;;5072401;28;20118;-78
2021/05/10 04:20:51;;;;;;;0.50;0.50;;;18.60;66.50;;;;;;5074960;28;20375;-76
2021/05/10 04:23:18;;;;;;;0.40;0.40;;;18.70;66.20;;;;;;5074745;28;20521;-80
2021/05/10 04:25:46;;;;;;;1.00;0.52;;;18.80;66.10;;;;;;5074124;28;20044;-79
2021/05/10 04:28:13;;;;;;;0.50;0.50;;;18.80;65.80;;;;;;5073179;28;20072;-79
2021/05/10 04:30:40;;;;;;;0.68;0.60;;;18.90;65.60;;;;;;5074951;28;20040;-79
2021/05/10 04:33:06;;;;;;;0.50;0.50;;;19.00;65.20;;;;;;5075999;28;20050;-78
2021/05/10 04:35:33;;;;;;;0.80;0.40;;;19.20;64.70;;;;;;5093330;28;20051;-77
2021/05/10 04:38:04;;;;;;;0.98;0.50;;;19.20;64.40;;;;;;5073579;28;20525;-77
2021/05/10 04:40:29;;;;;;;;;;;19.30;64.20;;;;;;5093225;28;20044;-78
2021/05/10 04:42:55;;;;;;;0.60;0.60;;;19.30;64.20;;;;;;5075797;28;19916;-79
2021/05/10 04:45:21;;;;;;;1.63;0.70;;;19.40;64.10;;;;;;5075189;28;20086;-76
2021/05/10 04:47:47;;;;;;;0.98;0.60;;;19.40;63.80;;;;;;5074513;28;20040;-79
2021/05/10 04:50:14;;;;;;;0.82;0.60;;;19.50;63.50;;;;;;5092416;28;20390;-80
2021/05/10 04:52:40;;;;;;;3.03;0.80;;;19.50;63.30;;;;;;5091162;28;20554;-80
2021/05/10 04:55:08;;;;;;;0.73;0.70;;;19.60;63.20;;;;;;5092508;28;20047;-79
2021/05/10 04:57:34;;;;;;;2.63;0.70;;;19.60;63.10;;;;;;5073450;28;20394;-79
2021/05/10 05:00:00;;;;;;;1.45;0.80;;;19.60;62.80;;;;;;5092868;28;20086;-78
2021/05/10 05:02:26;;;;;;;0.80;0.63;;;19.70;62.60;;;;;;5092355;28;20048;-79
2021/05/10 05:04:51;;;;;;;1.52;0.75;;;19.70;62.40;;;;;;5092213;28;20454;-79
2021/05/10 05:07:17;;;;;;;1.80;0.80;;;19.70;62.30;;;;;;5074448;28;20036;-79
2021/05/10 05:09:43;;;;;;;1.40;0.95;;;19.60;62.30;;;;;;5071269;28;20037;-79
2021/05/10 05:12:09;;;;;;;3.05;0.93;;;19.60;62.40;;;;;;5092443;28;20435;-78
2021/05/10 05:14:34;;;;;;;1.13;0.80;;;19.70;62.30;;;;;;5074038;28;20573;-80
2021/05/10 05:17:00;;;;;;;1.42;0.85;;;19.60;62.30;;;;;;5074448;28;20066;-79
2021/05/10 05:19:26;;;;;;;1.63;0.90;;;19.60;62.40;;;;;;5092130;28;20036;-80
2021/05/10 05:21:52;;;;;;;1.35;0.88;;;19.60;62.30;;;;;;5073608;28;20043;-78
2021/05/10 05:24:18;;;;;;;2.15;0.80;;;19.60;62.30;;;;;;5091922;28;20040;-78
2021/05/10 05:26:44;;;;;;;2.65;0.75;;;19.60;62.40;;;;;;5070518;28;20467;-79
2021/05/10 05:29:10;;;;;;;1.63;0.90;;;19.50;62.50;;;;;;5040473;28;20048;-78
2021/05/10 05:31:36;;;;;;;0.95;0.70;;;19.50;62.60;;;;;;5057049;28;20036;-78
2021/05/10 05:34:02;;;;;;;0.93;0.80;;;19.40;62.80;;;;;;5074463;28;20106;-79
2021/05/10 05:36:28;;;;;;;2.38;0.93;;;19.30;62.90;;;;;;5073658;28;20055;-80
2021/05/10 05:38:54;;;;;;;1.00;0.90;;;19.40;63.10;;;;;;5057089;28;20052;-80
2021/05/10 05:41:19;;;;;;;0.50;0.50;;;19.20;63.90;;;;;;5092065;28;20478;-79
2021/05/10 05:43:45;;;;;;;1.67;0.80;;;19.30;63.50;;;;;;5091904;28;20422;-79
2021/05/10 05:46:14;;;;;;;0.85;0.77;;;19.10;63.60;;;;;;5057174;28;20044;-76
2021/05/10 05:48:40;;;;;;;0.93;0.73;;;19.00;63.70;;;;;;5074855;28;20104;-79
2021/05/10 05:51:10;;;;;;;1.33;0.73;;;19.00;63.90;;;;;;5073694;28;20494;-78
2021/05/10 05:53:36;;;;;;;1.05;0.70;;;19.00;64.10;;;;;;5073832;28;20068;-79
2021/05/10 05:56:03;;;;;;;0.80;0.52;;;18.90;64.20;;;;;;5055244;28;20039;-82
2021/05/10 05:58:29;;;;;;;0.77;0.73;;;18.90;64.40;;;;;;5073693;28;20044;-80
2021/05/10 06:00:54;;;;;;;0.70;0.70;;;18.80;64.50;;;;;;5074050;28;20062;-78
2021/05/10 06:03:20;;;;;;;0.73;0.70;;;18.80;64.60;;;;;;5074626;28;20067;-76
2021/05/10 06:05:46;;;;;;;2.35;0.70;;;18.80;64.80;;;;;;5071955;28;20052;-76
2021/05/10 06:08:14;;;;;;;0.70;0.60;;;18.70;64.90;;;;;;5074840;28;20036;-77
2021/05/10 06:10:40;;;;;;;0.80;0.65;;;18.70;64.90;;;;;;5093260;28;20037;-79
2021/05/10 06:13:07;;;;;;;1.15;0.70;;;18.70;65.00;;;;;;5061049;28;20541;-79
2021/05/10 06:15:33;;;;;;;0.77;0.70;;;18.70;65.00;;;;;;5075298;28;20033;-77
2021/05/10 06:17:59;;;;;;;0.52;0.52;;;18.70;65.10;;;;;;5076657;28;20044;-78
2021/05/10 06:20:27;;;;;;;1.48;0.68;;;18.60;65.10;;;;;;5079739;28;20434;-78
2021/05/10 06:22:54;;;;;;;0.75;0.60;;;18.60;65.20;;;;;;5080506;28;20038;-80
2021/05/10 06:25:19;;;;;;;0.85;0.60;;;18.70;65.30;;;;;;5081222;28;20095;-78
2021/05/10 06:27:45;;;;;;;0.40;0.40;;;18.80;65.90;;;;;;5097009;28;20060;-77
2021/05/10 06:30:12;;;;;;;0.95;0.60;;;18.80;65.10;;;;;;5077079;28;20040;-79
2021/05/10 06:32:39;;;;;;;0.47;0.47;;;18.90;65.10;;;;;;5076998;28;20036;-77
2021/05/10 06:35:08;;;;;;;0.85;0.50;;;18.80;65.10;;;;;;5076486;28;20044;-77
2021/05/10 06:37:35;;;;;;;0.43;0.40;;;18.70;65.30;;;;;;5094414;28;20066;-77
2021/05/10 06:40:00;;;;;;;0.68;0.50;;;18.60;65.50;;;;;;5094403;28;20039;-77
2021/05/10 06:42:26;;;;;;;0.50;0.50;;;18.50;65.60;;;;;;5058703;28;20044;-77
2021/05/10 06:44:54;;;;;;;0.82;0.40;;;18.40;65.80;;;;;;5097458;28;20535;-76
2021/05/10 06:47:19;;;;;;;0.35;0.30;;;18.40;65.90;;;;;;5076432;28;20044;-78
2021/05/10 06:49:45;;;;;;;0.77;0.30;;;18.50;66.00;;;;;;5060050;28;20036;-76
2021/05/10 06:52:11;;;;;;;0.35;0.30;;;18.40;65.70;;;;;;5094876;28;20474;-77
2021/05/10 06:54:37;;;;;;;0.30;0.30;;;18.40;65.60;;;;;;5094204;28;20048;-79
2021/05/10 06:57:03;;;;;;;0.43;0.20;;;18.30;65.60;;;;;;5094641;28;20035;-77
2021/05/10 06:59:28;;;;;;;0.30;0.30;;;18.30;65.60;;;;;;5094073;28;20547;-76
2021/05/10 07:01:54;;;;;;;0.20;0.20;;;18.40;65.70;;;;;;5074402;28;20135;-75
2021/05/10 07:04:20;;;;;;;0.30;0.13;;;18.40;65.80;;;;;;5093389;28;20055;-77
2021/05/10 07:06:46;;;;;;;0.25;0.25;;;18.40;65.70;;;;;;5094328;28;20040;-74
2021/05/10 07:09:12;;;;;;;0.20;0.20;;;18.40;65.60;;;;;;5075766;28;20044;-76
2021/05/10 07:11:38;;;;;;;0.90;0.40;;;18.40;65.70;;;;;;5076418;28;20050;-77
2021/05/10 07:14:04;;;;;;;1.10;0.32;;;18.40;65.70;;;;;;5093778;28;20044;-77
2021/05/10 07:16:30;;;;;;;0.50;0.47;;;18.40;65.70;;;;;;5093829;28;20512;-77
2021/05/10 07:18:56;;;;;;;0.45;0.30;;;18.50;65.70;;;;;;5075651;28;20039;-77
2021/05/10 07:21:23;;;;;;;0.68;0.50;;;18.50;65.60;;;;;;5093701;28;20389;-77
2021/05/10 07:23:49;;;;;;;1.35;0.50;;;18.40;65.60;;;;;;5059373;28;20063;-76
2021/05/10 07:26:15;;;;;;;0.50;0.50;;;18.40;65.60;;;;;;5094603;28;20371;-79
2021/05/10 07:28:41;;;;;;;1.38;0.80;;;18.40;65.50;;;;;;5078682;28;20044;-74
2021/05/10 07:31:07;;;;;;;1.50;0.80;;;18.50;65.40;;;;;;5075297;28;20040;-78
2021/05/10 07:33:33;;;;;;;1.50;0.60;;;18.50;65.30;;;;;;5076403;28;20144;-78
2021/05/10 07:35:59;;;;;;;1.05;0.70;;;18.40;65.40;;;;;;5074872;28;20490;-81
2021/05/10 07:38:25;;;;;;;0.50;0.50;;;18.60;65.50;;;;;;5057718;28;20037;-74
2021/05/10 07:40:51;;;;;;;2.00;0.63;;;18.70;65.10;;;;;;5093848;28;20078;-75
2021/05/10 07:43:17;;;;;;;0.30;0.30;;;18.80;64.90;;;;;;5093848;28;20040;-77
2021/05/10 07:45:42;;;;;;;0.75;0.60;;;18.80;64.80;;;;;;5072621;28;20040;-75
2021/05/10 07:48:08;;;;;;;0.82;0.50;;;18.80;64.90;;;;;;5093416;28;20043;-74
2021/05/10 07:50:34;;;;;;;1.33;0.75;;;18.70;65.00;;;;;;5075588;28;20181;-76
2021/05/10 07:53:00;;;;;;;0.88;0.70;;;18.70;65.30;;;;;;5094237;28;20508;-75
2021/05/10 07:55:26;;;;;;;1.25;0.70;;;18.60;65.50;;;;;;5095069;28;20043;-75
2021/05/10 07:57:53;;;;;;;0.68;0.68;;;18.50;65.60;;;;;;5063977;28;20044;-80
2021/05/10 08:00:31;;;;;;;1.20;0.90;;;18.40;65.80;;;;;;5077901;28;20044;-76
2021/05/10 08:03:05;;;;;;;1.27;0.80;;;18.30;66.00;;;;;;5070836;28;20045;-78
2021/05/10 08:05:31;;;;;;;0.90;0.80;;;18.30;66.10;;;;;;5093456;28;20375;-75
2021/05/10 08:07:57;;;;;;;0.80;0.70;;;18.30;66.30;;;;;;5093305;28;20065;-74
2021/05/10 08:10:22;;;;;;;1.30;0.70;;;18.30;66.40;;;;;;5093249;28;20036;-77
2021/05/10 08:12:49;;;;;;;0.60;0.60;;;18.30;66.40;;;;;;5073454;28;20532;-74
2021/05/10 08:15:15;;;;;;;1.08;0.70;;;18.20;66.40;;;;;;5071106;28;20052;-76
2021/05/10 08:17:41;;;;;;;0.50;0.50;;;18.20;66.60;;;;;;5093132;28;20051;-73
2021/05/10 08:20:07;;;;;;;0.60;0.60;;;18.10;66.80;;;;;;5092953;28;20044;-73
2021/05/10 08:22:33;;;;;;;0.68;0.68;;;18.10;66.90;;;;;;5072956;28;20039;-74
2021/05/10 08:24:59;;;;;;;0.50;0.50;;;18.10;67.00;;;;;;5053635;28;20049;-75
2021/05/10 08:27:25;;;;;;;0.50;0.50;;;18.10;66.90;;;;;;5092396;28;20036;-75
2021/05/10 08:29:51;;;;;;;1.48;0.85;;;18.20;66.90;;;;;;5056407;28;20037;-74
2021/05/10 08:32:17;;;;;;;1.02;0.70;;;18.20;66.80;;;;;;5070222;28;20037;-76
2021/05/10 08:34:42;;;;;;;0.55;0.50;;;18.30;66.80;;;;;;5074455;28;20058;-75
2021/05/10 08:37:08;;;;;;;0.70;0.70;;;18.00;66.80;;;;;;5073493;28;20111;-76
2021/05/10 08:39:34;;;;;;;0.50;0.50;;;18.10;67.00;;;;;;5073077;28;20114;-75
2021/05/10 08:42:00;;;;;;;1.55;0.57;;;18.10;67.30;;;;;;5092327;28;20043;-79
2021/05/10 08:44:25;;;;;;;0.40;0.40;;;17.90;67.50;;;;;;5092179;28;20052;-81
2021/05/10 08:46:52;;;;;;;0.50;0.50;;;17.90;67.90;;;;;;5092842;28;20040;-76
2021/05/10 08:49:20;;;;;;;0.90;0.60;;;17.90;68.20;;;;;;5075169;28;20036;-76
2021/05/10 08:51:46;;;;;;;0.60;0.57;;;17.80;68.20;;;;;;5070573;28;20044;-74
2021/05/10 08:54:17;;;;;;;0.47;0.47;;;17.90;68.20;;;;;;5074108;28;20104;-76
2021/05/10 08:56:43;;;;;;;0.93;0.60;;;18.00;68.10;;;;;;5074856;28;20558;-75
2021/05/10 08:59:08;;;;;;;0.50;0.50;;;18.00;68.00;;;;;;5075158;28;20045;-76
2021/05/10 09:01:49;;;;;;;0.47;0.40;;;18.00;67.90;;;;;;5072529;28;20277;-76
2021/05/10 09:04:16;;;;;;;0.60;0.60;;;18.00;67.90;;;;;;5090856;28;20128;-76
2021/05/10 09:06:42;;;;;;;0.50;0.50;;;18.00;67.90;;;;;;5073665;28;20064;-77
2021/05/10 09:09:09;;;;;;;0.75;0.50;;;17.90;68.00;;;;;;5074104;28;20067;-77
2021/05/10 09:11:51;;;;;;;0.88;0.60;;;17.90;68.10;;;;;;5091992;28;20044;-77
2021/05/10 09:14:30;;;;;;;0.50;0.50;;;17.90;68.10;;;;;;5076919;28;20040;-77
2021/05/10 09:16:56;;;;;;;1.27;0.80;;;18.00;68.10;;;;;;5092038;28;20490;-76
2021/05/10 09:19:40;;;;;;;0.85;0.60;;;17.90;67.80;;;;;;5073963;28;20043;-77
2021/05/10 09:22:05;;;;;;;0.90;0.60;;;17.90;67.80;;;;;;5074482;28;20124;-77
2021/05/10 09:24:31;;;;;;;0.40;0.40;;;17.90;67.90;;;;;;5075394;28;20085;-77
2021/05/10 09:26:57;;;;;;;0.50;0.50;;;17.90;67.90;;;;;;5074670;28;20079;-78
2021/05/10 09:29:26;;;;;;;0.75;0.63;;;17.90;67.80;;;;;;5073904;28;20036;-77
2021/05/10 09:31:52;;;;;;;0.60;0.60;;;17.90;67.80;;;;;;5074948;28;20036;-75
2021/05/10 09:34:19;;;;;;;0.85;0.80;;;17.80;67.70;;;;;;5073639;28;20044;-74
2021/05/10 09:36:45;;;;;;;0.60;0.60;;;17.90;67.70;;;;;;5072300;28;20041;-76
2021/05/10 09:39:33;;;;;;;0.60;0.60;;;17.90;67.70;;;;;;5092137;28;20042;-76
2021/05/10 09:42:02;;;;;;;0.80;0.80;;;18.00;67.70;;;;;;5074009;28;20036;-74
2021/05/10 09:44:41;;;;;;;0.95;0.80;;;18.00;67.50;;;;;;5095059;28;20109;-74
2021/05/10 09:47:06;;;;;;;0.50;0.50;;;17.90;67.40;;;;;;5095100;28;20040;-74
2021/05/10 09:49:49;;;;;;;1.02;0.73;;;18.00;67.50;;;;;;5095051;28;20052;-75
2021/05/10 09:52:21;;;;;;;1.20;0.73;;;17.90;67.50;;;;;;5094975;28;20032;-74
2021/05/10 09:55:01;;;;;;;0.82;0.40;;;17.90;67.70;;;;;;5094997;28;20151;-74
2021/05/10 09:57:28;;;;;;;0.60;0.60;;;17.80;67.80;;;;;;5094921;28;20044;-75
2021/05/10 10:00:27;;;;;;;0.68;0.68;;;17.80;67.90;;;;;;5095331;28;20500;-74
2021/05/10 10:02:55;;;;;;;0.60;0.60;;;17.80;68.00;;;;;;5016126;28;20037;-75
2021/05/10 10:05:21;;;;;;;0.65;0.50;;;17.80;68.00;;;;;;5007104;28;20068;-76
2021/05/10 10:07:47;;;;;;;1.17;0.60;;;17.70;68.10;;;;;;5016155;28;20543;-76
2021/05/10 10:10:13;;;;;;;0.60;0.60;;;17.70;68.30;;;;;;5032945;28;20557;-75
2021/05/10 10:12:39;;;;;;;0.40;0.40;;;17.70;68.40;;;;;;5032259;28;20076;-77
2021/05/10 10:15:05;;;;;;;0.65;0.52;;;17.90;68.40;;;;;;5015548;28;20897;-76
2021/05/10 10:17:31;;;;;;;1.13;0.57;;;17.80;68.30;;;;;;5016395;28;20045;-75
2021/05/10 10:19:58;;;;;;;0.50;0.50;;;17.80;68.30;;;;;;5032989;28;20045;-76
2021/05/10 10:22:26;;;;;;;1.55;0.68;;;17.90;68.40;;;;;;5015752;28;20061;-77
2021/05/10 10:24:54;;;;;;;1.17;0.60;;;18.00;68.40;;;;;;5015800;28;20057;-76
2021/05/10 10:27:22;;;;;;;0.70;0.70;;;18.00;68.40;;;;;;5015466;28;20137;-78
2021/05/10 10:29:49;;;;;;;1.67;0.90;;;18.00;68.30;;;;;;5015813;28;20072;-78
2021/05/10 10:32:19;;;;;;;0.77;0.70;;;18.00;68.40;;;;;;5016387;28;20438;-78
2021/05/10 10:34:47;;;;;;;0.98;0.70;;;18.00;68.50;;;;;;4999448;28;20541;-78
2021/05/10 10:37:15;;;;;;;0.68;0.60;;;17.90;68.60;;;;;;4999985;28;20050;-75
2021/05/10 10:39:50;;;;;;;0.75;0.65;;;18.00;68.80;;;;;;5032648;28;20388;-75
2021/05/10 10:42:28;;;;;;;1.40;0.73;;;18.00;68.60;;;;;;5032396;28;20054;-75
2021/05/10 10:44:56;;;;;;;0.70;0.70;;;18.20;68.50;;;;;;5032620;28;20049;-76
2021/05/10 10:47:44;;;;;;;0.55;0.50;;;18.10;68.40;;;;;;5082496;28;20040;-75
2021/05/10 10:50:15;;;;;;;0.65;0.47;;;18.00;68.90;;;;;;5094189;28;20032;-76
2021/05/10 10:53:00;;;;;;;0.57;0.40;;;17.80;69.30;;;;;;5094345;28;20035;-77
2021/05/10 10:55:30;;;;;;;0.45;0.45;;;17.70;69.80;;;;;;5094148;28;20488;-78
2021/05/10 10:58:19;;;;;;;0.82;0.60;;;17.60;70.10;;;;;;5043709;28;20089;-78
2021/05/10 11:01:07;;;;;;;0.40;0.40;;;17.60;70.40;;;;;;5094392;28;20032;-77
2021/05/10 11:03:34;;;;;;;0.70;0.70;;;17.60;70.50;;;;;;5076685;28;20051;-78
2021/05/10 11:06:01;;;;;;;0.95;0.50;;;17.60;70.60;;;;;;5076967;28;20101;-76
2021/05/10 11:08:47;;;;;;;0.60;0.55;;;17.60;70.50;;;;;;5075665;28;20036;-75
2021/05/10 11:11:39;;;;;;;0.50;0.50;;;17.70;70.60;;;;;;5058768;28;20051;-75
2021/05/10 11:14:05;;;;;;;0.95;0.55;;;17.60;70.70;;;;;;5093607;28;20490;-75
2021/05/10 11:16:47;;;;;;;0.63;0.57;;;17.60;70.60;;;;;;5075844;28;20046;-76
2021/05/10 11:19:36;;;;;;;0.82;0.52;;;17.40;71.00;;;;;;5093930;28;20043;-76
2021/05/10 11:22:34;;;;;;;0.40;0.40;;;17.30;71.70;;;;;;5093640;28;20035;-77
2021/05/10 11:25:32;;;;;;;0.43;0.43;;;17.20;72.10;;;;;;5075143;28;20059;-76
2021/05/10 11:28:38;;;;;;;0.63;0.63;;;17.00;72.40;;;;;;5093624;28;20478;-75
2021/05/10 11:31:06;;;;;;;0.60;0.60;;;16.90;72.80;;;;;;5079201;28;20028;-75
2021/05/10 11:34:01;;;;;;;0.50;0.50;;;16.60;73.00;;;;;;5076236;28;20127;-76
2021/05/10 11:36:31;;;;;;;0.85;0.70;;;16.50;73.70;;;;;;5094030;28;20505;-76
2021/05/10 11:39:03;;;;;;;0.55;0.55;;;16.40;73.90;;;;;;5092056;28;20450;-77
2021/05/10 11:41:32;;;;;;;0.70;0.70;;;16.30;74.00;;;;;;5059320;28;20047;-75
2021/05/10 11:44:01;;;;;;;1.13;0.57;;;16.30;74.10;;;;;;5093910;28;20109;-76
2021/05/10 11:46:37;;;;;;;0.40;0.40;;;16.10;74.20;;;;;;5093454;28;20117;-74
2021/05/10 11:49:05;;;;;;;0.40;0.40;;;16.00;74.50;;;;;;5077334;28;20106;-75
2021/05/10 11:51:35;;;;;;;0.40;0.40;;;16.00;74.60;;;;;;5059260;28;20040;-76
2021/05/10 11:54:04;;;;;;;0.43;0.43;;;16.00;74.50;;;;;;5075301;28;20044;-76
2021/05/10 11:56:33;;;;;;;0.40;0.40;;;16.00;74.20;;;;;;5075915;28;21013;-77
2021/05/10 11:59:09;;;;;;;0.47;0.40;;;16.10;74.00;;;;;;5094335;28;20081;-76
2021/05/10 12:01:37;;;;;;;0.30;0.30;;;16.20;73.90;;;;;;5093396;28;20047;-75
2021/05/10 12:04:25;;;;;;;0.50;0.50;;;16.20;73.90;;;;;;5043173;28;20071;-76
2021/05/10 12:06:51;;;;;;;0.40;0.40;;;16.40;73.70;;;;;;5075644;28;20184;-77
2021/05/10 12:09:47;;;;;;;0.50;0.47;;;16.60;73.40;;;;;;5061894;28;20124;-74
2021/05/10 12:12:22;;;;;;;0.40;0.40;;;16.70;72.90;;;;;;5092653;28;20067;-76
2021/05/10 12:14:51;;;;;;;0.40;0.40;;;16.90;72.40;;;;;;5057876;28;20540;-77
2021/05/10 12:17:20;;;;;;;0.35;0.35;;;17.10;72.30;;;;;;5057791;28;20052;-75
2021/05/10 12:19:55;;;;;;;0.40;0.40;;;17.30;72.00;;;;;;5057126;28;20074;-75
2021/05/10 12:22:39;;;;;;;0.35;0.35;;;17.50;71.60;;;;;;5080964;28;20044;-75
2021/05/10 12:25:09;;;;;;;0.88;0.40;;;17.70;71.00;;;;;;5099139;28;20097;-75
2021/05/10 12:27:38;;;;;;;0.60;0.60;;;17.90;70.80;;;;;;5096853;28;20062;-74
2021/05/10 12:30:09;;;;;;;1.40;0.80;;;18.10;70.50;;;;;;5082768;28;20130;-75
2021/05/10 12:32:35;;;;;;;0.98;0.88;;;18.20;70.30;;;;;;5101415;28;20052;-75
2021/05/10 12:35:01;;;;;;;0.57;0.57;;;18.20;70.10;;;;;;5090143;28;20040;-75
2021/05/10 12:37:27;;;;;;;0.95;0.80;;;18.40;70.30;;;;;;5104092;28;20091;-75
2021/05/10 12:40:06;;;;;;;0.65;0.65;;;18.40;70.10;;;;;;5085972;28;20042;-73
2021/05/10 12:42:32;;;;;;;0.73;0.73;;;18.50;70.10;;;;;;5095205;28;20063;-74
2021/05/10 12:45:01;;;;;;;0.50;0.47;;;18.50;70.00;;;;;;5098034;28;20037;-76
2021/05/10 12:47:40;;;;;;;0.30;0.30;;;18.50;70.10;;;;;;5095772;28;20044;-75
2021/05/10 12:50:08;;;;;;;0.50;0.50;;;18.50;70.20;;;;;;5101015;28;20036;-75
2021/05/10 12:52:51;;;;;;;0.40;0.40;;;18.60;70.40;;;;;;5095306;28;20036;-75
2021/05/10 12:55:21;;;;;;;0.65;0.52;;;18.70;70.30;;;;;;5059495;28;20044;-76
2021/05/10 12:57:49;;;;;;;0.63;0.55;;;18.80;70.10;;;;;;5057988;28;20047;-74
2021/05/10 13:00:35;;;;;;;0.57;0.52;;;18.90;69.70;;;;;;5093016;28;20192;-76
2021/05/10 13:03:03;;;;;;;0.60;0.60;;;18.90;69.70;;;;;;5056738;28;20067;-75
2021/05/10 13:05:34;;;;;;;0.52;0.52;;;18.90;69.70;;;;;;5092109;28;20032;-77